sensor_id;sensor_type;location;lat;lon;timestamp;pressure;altitude;pressure_sealevel;temperature;humidity
3598;BME280;1813;52.016;8.714;2023-02-17T00:00:38;-16261.94;;;-139.71;90.28
3598;BME280;1813;52.016;8.714;2023-02-17T00:03:12;-16261.94;;;-139.71;90.42
3598;BME280;1813;52.016;8.714;2023-02-17T00:05:46;-16261.94;;;-139.71;90.64
3598;BME280;1813;52.016;8.714;2023-02-17T00:08:22;-16261.94;;;-139.71;90.74
3598;BME280;1813;52.016;8.714;2023-02-17T00:10:57;-16261.94;;;-139.71;90.86
3598;BME280;1813;52.016;8.714;2023-02-17T00:13:31;-16261.94;;;-139.71;90.93
3598;BME280;1813;52.016;8.714;2023-02-17T00:16:06;-16261.94;;;-139.71;91.01
3598;BME280;1813;52.016;8.714;2023-02-17T00:18:40;-16261.94;;;-139.71;91.05
3598;BME280;1813;52.016;8.714;2023-02-17T00:21:16;-16261.94;;;-139.71;91.25
3598;BME280;1813;52.016;8.714;2023-02-17T00:23:53;-16261.94;;;-139.71;91.45
3598;BME280;1813;52.016;8.714;2023-02-17T00:26:27;-16261.94;;;-139.71;91.47
3598;BME280;1813;52.016;8.714;2023-02-17T00:29:01;-16261.94;;;-139.71;91.25
3598;BME280;1813;52.016;8.714;2023-02-17T00:31:34;-16261.94;;;-139.71;91.44
3598;BME280;1813;52.016;8.714;2023-02-17T00:34:08;-16261.94;;;-139.71;91.35
3598;BME280;1813;52.016;8.714;2023-02-17T00:36:42;-16261.94;;;-139.71;91.44
3598;BME280;1813;52.016;8.714;2023-02-17T00:39:19;-16261.94;;;-139.71;91.67
3598;BME280;1813;52.016;8.714;2023-02-17T00:41:53;-16261.94;;;-139.71;91.67
3598;BME280;1813;52.016;8.714;2023-02-17T00:44:27;-16261.94;;;-139.71;91.82
3598;BME280;1813;52.016;8.714;2023-02-17T00:47:00;-16261.94;;;-139.71;91.96
3598;BME280;1813;52.016;8.714;2023-02-17T00:49:34;-16261.94;;;-139.71;91.81
3598;BME280;1813;52.016;8.714;2023-02-17T00:52:08;-16261.94;;;-139.71;91.71
3598;BME280;1813;52.016;8.714;2023-02-17T00:54:44;-16261.94;;;-139.71;91.77
3598;BME280;1813;52.016;8.714;2023-02-17T00:57:18;-16261.94;;;-139.71;91.96
3598;BME280;1813;52.016;8.714;2023-02-17T00:59:52;-16261.94;;;-139.71;91.99
3598;BME280;1813;52.016;8.714;2023-02-17T01:02:26;-16261.94;;;-139.71;91.95
3598;BME280;1813;52.016;8.714;2023-02-17T01:05:00;-16261.94;;;-139.71;91.79
3598;BME280;1813;52.016;8.714;2023-02-17T01:07:34;-16261.94;;;-139.71;91.93
3598;BME280;1813;52.016;8.714;2023-02-17T01:10:12;-16261.94;;;-139.71;91.82
3598;BME280;1813;52.016;8.714;2023-02-17T01:12:46;-16261.94;;;-139.71;91.87
3598;BME280;1813;52.016;8.714;2023-02-17T01:15:20;-16261.94;;;-139.71;91.74
3598;BME280;1813;52.016;8.714;2023-02-17T01:17:55;-16261.94;;;-139.71;91.74
3598;BME280;1813;52.016;8.714;2023-02-17T01:20:29;-16261.94;;;-139.71;91.93
3598;BME280;1813;52.016;8.714;2023-02-17T01:23:05;-16261.94;;;-139.71;91.76
3598;BME280;1813;52.016;8.714;2023-02-17T01:25:44;-16261.94;;;-139.71;91.96
3598;BME280;1813;52.016;8.714;2023-02-17T01:28:20;-16261.94;;;-139.71;91.80
3598;BME280;1813;52.016;8.714;2023-02-17T01:30:54;-16261.94;;;-139.71;92.03
3598;BME280;1813;52.016;8.714;2023-02-17T01:33:50;-16261.94;;;-139.71;91.96
3598;BME280;1813;52.016;8.714;2023-02-17T01:36:24;-16261.94;;;-139.71;91.82
3598;BME280;1813;52.016;8.714;2023-02-17T01:38:58;-16261.94;;;-139.71;92.04
3598;BME280;1813;52.016;8.714;2023-02-17T01:41:35;-16261.94;;;-139.71;92.08
3598;BME280;1813;52.016;8.714;2023-02-17T01:44:13;-16261.94;;;-139.71;91.95
3598;BME280;1813;52.016;8.714;2023-02-17T01:46:47;-16261.94;;;-139.71;91.98
3598;BME280;1813;52.016;8.714;2023-02-17T01:49:30;-16261.94;;;-139.71;91.97
3598;BME280;1813;52.016;8.714;2023-02-17T01:52:10;-16261.94;;;-139.71;91.97
3598;BME280;1813;52.016;8.714;2023-02-17T01:54:50;-16261.94;;;-139.71;92.08
3598;BME280;1813;52.016;8.714;2023-02-17T01:57:30;-16261.94;;;-139.71;92.08
3598;BME280;1813;52.016;8.714;2023-02-17T02:00:08;-16261.94;;;-139.71;92.13
3598;BME280;1813;52.016;8.714;2023-02-17T02:02:47;-16261.94;;;-139.71;92.08
3598;BME280;1813;52.016;8.714;2023-02-17T02:05:23;-16261.94;;;-139.71;91.97
3598;BME280;1813;52.016;8.714;2023-02-17T02:07:57;-16261.94;;;-139.71;92.19
3598;BME280;1813;52.016;8.714;2023-02-17T02:10:32;-16261.94;;;-139.71;92.23
3598;BME280;1813;52.016;8.714;2023-02-17T02:13:12;-16261.94;;;-139.71;92.38
3598;BME280;1813;52.016;8.714;2023-02-17T02:15:50;-16261.94;;;-139.71;92.33
3598;BME280;1813;52.016;8.714;2023-02-17T02:18:38;-16261.94;;;-139.71;92.27
3598;BME280;1813;52.016;8.714;2023-02-17T02:24:31;-16261.94;;;-139.71;92.54
3598;BME280;1813;52.016;8.714;2023-02-17T02:27:23;-16261.94;;;-139.71;92.50
3598;BME280;1813;52.016;8.714;2023-02-17T02:33:10;-16261.94;;;-139.71;92.49
3598;BME280;1813;52.016;8.714;2023-02-17T02:35:55;-16261.94;;;-139.71;92.63
3598;BME280;1813;52.016;8.714;2023-02-17T02:38:36;-16261.94;;;-139.71;92.65
3598;BME280;1813;52.016;8.714;2023-02-17T02:41:16;-16261.94;;;-139.71;92.79
3598;BME280;1813;52.016;8.714;2023-02-17T02:43:54;-16261.94;;;-139.71;92.73
3598;BME280;1813;52.016;8.714;2023-02-17T02:46:28;-16261.94;;;-139.71;92.74
3598;BME280;1813;52.016;8.714;2023-02-17T02:49:05;-16261.94;;;-139.71;92.83
3598;BME280;1813;52.016;8.714;2023-02-17T02:51:46;-16261.94;;;-139.71;92.78
3598;BME280;1813;52.016;8.714;2023-02-17T02:54:40;-16261.94;;;-139.71;92.79
3598;BME280;1813;52.016;8.714;2023-02-17T02:57:33;-16261.94;;;-139.71;92.76
3598;BME280;1813;52.016;8.714;2023-02-17T03:00:16;-16261.94;;;-139.71;92.74
3598;BME280;1813;52.016;8.714;2023-02-17T03:02:57;-16261.94;;;-139.71;92.96
3598;BME280;1813;52.016;8.714;2023-02-17T03:05:42;-16261.94;;;-139.71;92.94
3598;BME280;1813;52.016;8.714;2023-02-17T03:08:25;-16261.94;;;-139.71;92.97
3598;BME280;1813;52.016;8.714;2023-02-17T03:11:02;-16261.94;;;-139.71;92.97
3598;BME280;1813;52.016;8.714;2023-02-17T03:13:39;-16261.94;;;-139.71;93.09
3598;BME280;1813;52.016;8.714;2023-02-17T03:16:15;-16261.94;;;-139.71;93.14
3598;BME280;1813;52.016;8.714;2023-02-17T03:18:49;-16261.94;;;-139.71;93.27
3598;BME280;1813;52.016;8.714;2023-02-17T03:21:33;-16261.94;;;-139.71;93.16
3598;BME280;1813;52.016;8.714;2023-02-17T03:24:08;-16261.94;;;-139.71;93.05
3598;BME280;1813;52.016;8.714;2023-02-17T03:26:42;-16261.94;;;-139.71;93.21
3598;BME280;1813;52.016;8.714;2023-02-17T03:29:16;-16261.94;;;-139.71;93.11
3598;BME280;1813;52.016;8.714;2023-02-17T03:31:50;-16261.94;;;-139.71;93.31
3598;BME280;1813;52.016;8.714;2023-02-17T03:34:24;-16261.94;;;-139.71;93.17
3598;BME280;1813;52.016;8.714;2023-02-17T03:37:00;-16261.94;;;-139.71;93.32
3598;BME280;1813;52.016;8.714;2023-02-17T03:39:34;-16261.94;;;-139.71;93.39
3598;BME280;1813;52.016;8.714;2023-02-17T03:42:08;-16261.94;;;-139.71;93.27
3598;BME280;1813;52.016;8.714;2023-02-17T03:44:42;-16261.94;;;-139.71;93.28
3598;BME280;1813;52.016;8.714;2023-02-17T03:47:16;-16261.94;;;-139.71;93.29
3598;BME280;1813;52.016;8.714;2023-02-17T03:49:49;-16261.94;;;-139.71;93.17
3598;BME280;1813;52.016;8.714;2023-02-17T03:52:26;-16261.94;;;-139.71;93.26
3598;BME280;1813;52.016;8.714;2023-02-17T03:55:00;-16261.94;;;-139.71;93.29
3598;BME280;1813;52.016;8.714;2023-02-17T03:57:34;-16261.94;;;-139.71;93.30
3598;BME280;1813;52.016;8.714;2023-02-17T04:00:09;-16261.94;;;-139.71;93.29
3598;BME280;1813;52.016;8.714;2023-02-17T04:02:45;-16261.94;;;-139.71;93.37
3598;BME280;1813;52.016;8.714;2023-02-17T04:05:19;-16261.94;;;-139.71;93.19
3598;BME280;1813;52.016;8.714;2023-02-17T04:07:56;-16261.94;;;-139.71;93.11
3598;BME280;1813;52.016;8.714;2023-02-17T04:10:29;-16261.94;;;-139.71;93.31
3598;BME280;1813;52.016;8.714;2023-02-17T04:13:03;-16261.94;;;-139.71;93.11
3598;BME280;1813;52.016;8.714;2023-02-17T04:15:37;-16261.94;;;-139.71;93.21
3598;BME280;1813;52.016;8.714;2023-02-17T04:18:11;-16261.94;;;-139.71;93.09
3598;BME280;1813;52.016;8.714;2023-02-17T04:20:50;-16261.94;;;-139.71;92.82
3598;BME280;1813;52.016;8.714;2023-02-17T04:23:27;-16261.94;;;-139.71;92.84
3598;BME280;1813;52.016;8.714;2023-02-17T04:26:02;-16261.94;;;-139.71;92.74
3598;BME280;1813;52.016;8.714;2023-02-17T04:28:37;-16261.94;;;-139.71;92.66
3598;BME280;1813;52.016;8.714;2023-02-17T04:31:11;-16261.94;;;-139.71;92.74
3598;BME280;1813;52.016;8.714;2023-02-17T04:33:45;-16261.94;;;-139.71;92.45
3598;BME280;1813;52.016;8.714;2023-02-17T04:36:19;-16261.94;;;-139.71;92.48
3598;BME280;1813;52.016;8.714;2023-02-17T04:38:55;-16261.94;;;-139.71;92.59
3598;BME280;1813;52.016;8.714;2023-02-17T04:41:29;-16261.94;;;-139.71;92.23
3598;BME280;1813;52.016;8.714;2023-02-17T04:44:03;-16261.94;;;-139.71;92.23
3598;BME280;1813;52.016;8.714;2023-02-17T04:46:38;-16261.94;;;-139.71;92.12
3598;BME280;1813;52.016;8.714;2023-02-17T04:49:13;-16261.94;;;-139.71;92.05
3598;BME280;1813;52.016;8.714;2023-02-17T04:51:47;-16261.94;;;-139.71;91.74
3598;BME280;1813;52.016;8.714;2023-02-17T04:54:23;-16261.94;;;-139.71;91.87
3598;BME280;1813;52.016;8.714;2023-02-17T04:56:57;-16261.94;;;-139.71;91.60
3598;BME280;1813;52.016;8.714;2023-02-17T04:59:30;-16261.94;;;-139.71;91.47
3598;BME280;1813;52.016;8.714;2023-02-17T05:02:07;-16261.94;;;-139.71;91.17
3598;BME280;1813;52.016;8.714;2023-02-17T05:04:40;-16261.94;;;-139.71;91.19
3598;BME280;1813;52.016;8.714;2023-02-17T05:07:14;-16261.94;;;-139.71;90.87
3598;BME280;1813;52.016;8.714;2023-02-17T05:09:51;-16261.94;;;-139.71;90.48
3598;BME280;1813;52.016;8.714;2023-02-17T05:12:24;-16261.94;;;-139.71;90.42
3598;BME280;1813;52.016;8.714;2023-02-17T05:14:58;-16261.94;;;-139.71;90.44
3598;BME280;1813;52.016;8.714;2023-02-17T05:17:32;-16261.94;;;-139.71;90.19
3598;BME280;1813;52.016;8.714;2023-02-17T05:20:10;-16261.94;;;-139.71;90.21
3598;BME280;1813;52.016;8.714;2023-02-17T05:22:44;-16261.94;;;-139.71;89.88
3598;BME280;1813;52.016;8.714;2023-02-17T05:25:21;-16261.94;;;-139.71;89.60
3598;BME280;1813;52.016;8.714;2023-02-17T05:27:55;-16261.94;;;-139.71;89.51
3598;BME280;1813;52.016;8.714;2023-02-17T05:30:28;-16261.94;;;-139.71;89.51
3598;BME280;1813;52.016;8.714;2023-02-17T05:33:04;-16261.94;;;-139.71;89.00
3598;BME280;1813;52.016;8.714;2023-02-17T05:35:38;-16261.94;;;-139.71;88.98
3598;BME280;1813;52.016;8.714;2023-02-17T05:38:11;-16261.94;;;-139.71;88.58
3598;BME280;1813;52.016;8.714;2023-02-17T05:40:49;-16261.94;;;-139.71;88.37
3598;BME280;1813;52.016;8.714;2023-02-17T05:43:23;-16261.94;;;-139.71;88.08
3598;BME280;1813;52.016;8.714;2023-02-17T05:46:10;-16261.94;;;-139.71;87.96
3598;BME280;1813;52.016;8.714;2023-02-17T05:48:44;-16261.94;;;-139.71;88.13
3598;BME280;1813;52.016;8.714;2023-02-17T05:51:18;-16261.94;;;-139.71;87.77
3598;BME280;1813;52.016;8.714;2023-02-17T05:53:52;-16261.94;;;-139.71;87.51
3598;BME280;1813;52.016;8.714;2023-02-17T05:56:28;-16261.94;;;-139.71;87.66
3598;BME280;1813;52.016;8.714;2023-02-17T05:59:02;-16261.94;;;-139.71;87.40
3598;BME280;1813;52.016;8.714;2023-02-17T06:01:36;-16261.94;;;-139.71;86.98
3598;BME280;1813;52.016;8.714;2023-02-17T06:04:10;-16261.94;;;-139.71;86.88
3598;BME280;1813;52.016;8.714;2023-02-17T06:06:45;-16261.94;;;-139.71;86.70
3598;BME280;1813;52.016;8.714;2023-02-17T06:09:19;-16261.94;;;-139.71;86.65
3598;BME280;1813;52.016;8.714;2023-02-17T06:11:56;-16261.94;;;-139.71;86.80
3598;BME280;1813;52.016;8.714;2023-02-17T06:14:31;-16261.94;;;-139.71;86.62
3598;BME280;1813;52.016;8.714;2023-02-17T06:17:05;-16261.94;;;-139.71;86.66
3598;BME280;1813;52.016;8.714;2023-02-17T06:19:39;-16261.94;;;-139.71;86.69
3598;BME280;1813;52.016;8.714;2023-02-17T06:22:13;-16261.94;;;-139.71;86.70
3598;BME280;1813;52.016;8.714;2023-02-17T06:24:47;-16261.94;;;-139.71;86.79
3598;BME280;1813;52.016;8.714;2023-02-17T06:27:24;-16261.94;;;-139.71;86.62
3598;BME280;1813;52.016;8.714;2023-02-17T06:29:57;-16261.94;;;-139.71;86.65
3598;BME280;1813;52.016;8.714;2023-02-17T06:32:31;-16261.94;;;-139.71;86.56
3598;BME280;1813;52.016;8.714;2023-02-17T06:35:06;-16261.94;;;-139.71;86.35
3598;BME280;1813;52.016;8.714;2023-02-17T06:37:42;-16261.94;;;-139.71;86.46
3598;BME280;1813;52.016;8.714;2023-02-17T06:40:16;-16261.94;;;-139.71;86.30
3598;BME280;1813;52.016;8.714;2023-02-17T06:42:54;-16261.94;;;-139.71;86.05
3598;BME280;1813;52.016;8.714;2023-02-17T06:45:28;-16261.94;;;-139.71;85.96
3598;BME280;1813;52.016;8.714;2023-02-17T06:48:01;-16261.94;;;-139.71;86.05
3598;BME280;1813;52.016;8.714;2023-02-17T06:50:35;-16261.94;;;-139.71;86.05
3598;BME280;1813;52.016;8.714;2023-02-17T06:53:09;-16261.94;;;-139.71;85.77
3598;BME280;1813;52.016;8.714;2023-02-17T06:55:43;-16261.94;;;-139.71;85.72
3598;BME280;1813;52.016;8.714;2023-02-17T06:58:20;-16261.94;;;-139.71;85.62
3598;BME280;1813;52.016;8.714;2023-02-17T07:00:54;-16261.94;;;-139.71;85.66
3598;BME280;1813;52.016;8.714;2023-02-17T07:03:29;-16261.94;;;-139.71;85.39
3598;BME280;1813;52.016;8.714;2023-02-17T07:06:04;-16261.94;;;-139.71;85.17
3598;BME280;1813;52.016;8.714;2023-02-17T07:08:38;-16261.94;;;-139.71;84.97
3598;BME280;1813;52.016;8.714;2023-02-17T07:11:30;-16261.94;;;-139.71;84.71
3598;BME280;1813;52.016;8.714;2023-02-17T07:14:06;-16261.94;;;-139.71;84.32
3598;BME280;1813;52.016;8.714;2023-02-17T07:16:40;-16261.94;;;-139.71;84.27
3598;BME280;1813;52.016;8.714;2023-02-17T07:19:14;-16261.94;;;-139.71;84.46
3598;BME280;1813;52.016;8.714;2023-02-17T07:21:48;-16261.94;;;-139.71;84.03
3598;BME280;1813;52.016;8.714;2023-02-17T07:24:22;-16261.94;;;-139.71;83.86
3598;BME280;1813;52.016;8.714;2023-02-17T07:26:56;-16261.94;;;-139.71;83.35
3598;BME280;1813;52.016;8.714;2023-02-17T07:29:33;-16261.94;;;-139.71;83.27
3598;BME280;1813;52.016;8.714;2023-02-17T07:32:07;-16261.94;;;-139.71;83.32
3598;BME280;1813;52.016;8.714;2023-02-17T07:34:40;-16261.94;;;-139.71;83.20
3598;BME280;1813;52.016;8.714;2023-02-17T07:37:14;-16261.94;;;-139.71;83.49
3598;BME280;1813;52.016;8.714;2023-02-17T07:39:49;-16261.94;;;-139.71;83.55
3598;BME280;1813;52.016;8.714;2023-02-17T07:42:23;-16261.94;;;-139.71;83.45
3598;BME280;1813;52.016;8.714;2023-02-17T07:45:03;-16261.94;;;-139.71;83.23
3598;BME280;1813;52.016;8.714;2023-02-17T07:47:38;-16261.94;;;-139.71;83.16
3598;BME280;1813;52.016;8.714;2023-02-17T07:50:12;-16261.94;;;-139.71;83.16
3598;BME280;1813;52.016;8.714;2023-02-17T07:52:46;-16261.94;;;-139.71;83.44
3598;BME280;1813;52.016;8.714;2023-02-17T07:55:21;-16261.94;;;-139.71;83.39
3598;BME280;1813;52.016;8.714;2023-02-17T07:57:54;-16261.94;;;-139.71;83.69
3598;BME280;1813;52.016;8.714;2023-02-17T08:00:32;-16261.94;;;-139.71;83.76
3598;BME280;1813;52.016;8.714;2023-02-17T08:03:06;-16261.94;;;-139.71;84.00
3598;BME280;1813;52.016;8.714;2023-02-17T08:05:40;-16261.94;;;-139.71;84.29
3598;BME280;1813;52.016;8.714;2023-02-17T08:08:14;-16261.94;;;-139.71;84.96
3598;BME280;1813;52.016;8.714;2023-02-17T08:11:00;-16261.94;;;-139.71;85.24
3598;BME280;1813;52.016;8.714;2023-02-17T08:13:46;-16261.94;;;-139.71;85.52
3598;BME280;1813;52.016;8.714;2023-02-17T08:16:23;-16261.94;;;-139.71;85.57
3598;BME280;1813;52.016;8.714;2023-02-17T08:18:58;-16261.94;;;-139.71;86.37
3598;BME280;1813;52.016;8.714;2023-02-17T08:21:32;-16261.94;;;-139.71;86.54
3598;BME280;1813;52.016;8.714;2023-02-17T08:24:08;-16261.94;;;-139.71;86.84
3598;BME280;1813;52.016;8.714;2023-02-17T08:26:42;-16261.94;;;-139.71;87.09
3598;BME280;1813;52.016;8.714;2023-02-17T08:29:16;-16261.94;;;-139.71;87.39
3598;BME280;1813;52.016;8.714;2023-02-17T08:31:53;-16261.94;;;-139.71;87.55
3598;BME280;1813;52.016;8.714;2023-02-17T08:34:30;-16261.94;;;-139.71;87.71
3598;BME280;1813;52.016;8.714;2023-02-17T08:37:06;-16261.94;;;-139.71;88.05
3598;BME280;1813;52.016;8.714;2023-02-17T08:39:40;-16261.94;;;-139.71;88.16
3598;BME280;1813;52.016;8.714;2023-02-17T08:42:14;-16261.94;;;-139.71;88.18
3598;BME280;1813;52.016;8.714;2023-02-17T08:44:48;-16261.94;;;-139.71;88.43
3598;BME280;1813;52.016;8.714;2023-02-17T08:47:24;-16261.94;;;-139.71;88.41
3598;BME280;1813;52.016;8.714;2023-02-17T08:49:57;-16261.94;;;-139.71;88.76
3598;BME280;1813;52.016;8.714;2023-02-17T08:52:33;-16261.94;;;-139.71;88.76
3598;BME280;1813;52.016;8.714;2023-02-17T08:55:07;-16261.94;;;-139.71;89.08
3598;BME280;1813;52.016;8.714;2023-02-17T08:57:41;-16261.94;;;-139.71;88.98
3598;BME280;1813;52.016;8.714;2023-02-17T09:00:16;-16261.94;;;-139.71;89.15
3598;BME280;1813;52.016;8.714;2023-02-17T09:02:54;-16261.94;;;-139.71;89.16
3598;BME280;1813;52.016;8.714;2023-02-17T09:05:28;-16261.94;;;-139.71;89.15
3598;BME280;1813;52.016;8.714;2023-02-17T09:08:02;-16261.94;;;-139.71;89.20
3598;BME280;1813;52.016;8.714;2023-02-17T09:10:36;-16261.94;;;-139.71;89.35
3598;BME280;1813;52.016;8.714;2023-02-17T09:13:09;-16261.94;;;-139.71;89.51
3598;BME280;1813;52.016;8.714;2023-02-17T09:15:45;-16261.94;;;-139.71;89.26
3598;BME280;1813;52.016;8.714;2023-02-17T09:18:25;-16261.94;;;-139.71;89.46
3598;BME280;1813;52.016;8.714;2023-02-17T09:21:05;-16261.94;;;-139.71;89.59
3598;BME280;1813;52.016;8.714;2023-02-17T09:23:39;-16261.94;;;-139.71;89.49
3598;BME280;1813;52.016;8.714;2023-02-17T09:26:15;-16261.94;;;-139.71;89.42
3598;BME280;1813;52.016;8.714;2023-02-17T09:28:49;-16261.94;;;-139.71;89.18
3598;BME280;1813;52.016;8.714;2023-02-17T09:31:25;-16261.94;;;-139.71;89.43
3598;BME280;1813;52.016;8.714;2023-02-17T09:34:04;-16261.94;;;-139.71;89.35
3598;BME280;1813;52.016;8.714;2023-02-17T09:36:39;-16261.94;;;-139.71;89.46
3598;BME280;1813;52.016;8.714;2023-02-17T09:39:13;-16261.94;;;-139.71;89.28
3598;BME280;1813;52.016;8.714;2023-02-17T09:41:49;-16261.94;;;-139.71;89.05
3598;BME280;1813;52.016;8.714;2023-02-17T09:44:26;-16261.94;;;-139.71;88.86
3598;BME280;1813;52.016;8.714;2023-02-17T09:47:06;-16261.94;;;-139.71;89.15
3598;BME280;1813;52.016;8.714;2023-02-17T09:49:47;-16261.94;;;-139.71;89.15
3598;BME280;1813;52.016;8.714;2023-02-17T09:52:27;-16261.94;;;-139.71;88.99
3598;BME280;1813;52.016;8.714;2023-02-17T09:55:07;-16261.94;;;-139.71;89.13
3598;BME280;1813;52.016;8.714;2023-02-17T09:57:48;-16261.94;;;-139.71;88.99
3598;BME280;1813;52.016;8.714;2023-02-17T10:00:24;-16261.94;;;-139.71;88.77
3598;BME280;1813;52.016;8.714;2023-02-17T10:03:05;-16261.94;;;-139.71;88.68
3598;BME280;1813;52.016;8.714;2023-02-17T10:05:46;-16261.94;;;-139.71;88.73
3598;BME280;1813;52.016;8.714;2023-02-17T10:08:27;-16261.94;;;-139.71;88.52
3598;BME280;1813;52.016;8.714;2023-02-17T10:11:07;-16261.94;;;-139.71;88.75
3598;BME280;1813;52.016;8.714;2023-02-17T10:13:43;-16261.94;;;-139.71;88.42
3598;BME280;1813;52.016;8.714;2023-02-17T10:16:22;-16261.94;;;-139.71;88.15
3598;BME280;1813;52.016;8.714;2023-02-17T10:19:04;-16261.94;;;-139.71;87.88
3598;BME280;1813;52.016;8.714;2023-02-17T10:21:52;-16261.94;;;-139.71;87.92
3598;BME280;1813;52.016;8.714;2023-02-17T10:24:28;-16261.94;;;-139.71;87.87
3598;BME280;1813;52.016;8.714;2023-02-17T10:27:14;-16261.94;;;-139.71;87.64
3598;BME280;1813;52.016;8.714;2023-02-17T10:33:10;-16261.94;;;-139.71;87.19
3598;BME280;1813;52.016;8.714;2023-02-17T10:35:48;-16261.94;;;-139.71;86.78
3598;BME280;1813;52.016;8.714;2023-02-17T10:38:35;-16261.94;;;-139.71;86.46
3598;BME280;1813;52.016;8.714;2023-02-17T10:41:14;-16261.94;;;-139.71;86.18
3598;BME280;1813;52.016;8.714;2023-02-17T10:43:50;-16261.94;;;-139.71;85.67
3598;BME280;1813;52.016;8.714;2023-02-17T10:46:28;-16261.94;;;-139.71;85.16
3598;BME280;1813;52.016;8.714;2023-02-17T10:49:03;-16261.94;;;-139.71;84.54
3598;BME280;1813;52.016;8.714;2023-02-17T10:51:36;-16261.94;;;-139.71;84.35
3598;BME280;1813;52.016;8.714;2023-02-17T10:54:21;-16261.94;;;-139.71;83.90
3598;BME280;1813;52.016;8.714;2023-02-17T10:57:00;-16261.94;;;-139.71;83.64
3598;BME280;1813;52.016;8.714;2023-02-17T10:59:39;-16261.94;;;-139.71;83.08
3598;BME280;1813;52.016;8.714;2023-02-17T11:02:17;-16261.94;;;-139.71;82.94
3598;BME280;1813;52.016;8.714;2023-02-17T11:04:52;-16261.94;;;-139.71;82.32
3598;BME280;1813;52.016;8.714;2023-02-17T11:07:32;-16261.94;;;-139.71;81.97
3598;BME280;1813;52.016;8.714;2023-02-17T11:10:24;-16261.94;;;-139.71;81.46
3598;BME280;1813;52.016;8.714;2023-02-17T11:13:00;-16261.94;;;-139.71;81.16
3598;BME280;1813;52.016;8.714;2023-02-17T11:15:43;-16261.94;;;-139.71;80.70
3598;BME280;1813;52.016;8.714;2023-02-17T11:18:19;-16261.94;;;-139.71;80.50
3598;BME280;1813;52.016;8.714;2023-02-17T11:21:06;-16261.94;;;-139.71;79.79
3598;BME280;1813;52.016;8.714;2023-02-17T11:23:48;-16261.94;;;-139.71;79.09
3598;BME280;1813;52.016;8.714;2023-02-17T11:26:26;-16261.94;;;-139.71;78.19
3598;BME280;1813;52.016;8.714;2023-02-17T11:29:07;-16261.94;;;-139.71;77.29
3598;BME280;1813;52.016;8.714;2023-02-17T11:31:52;-16261.94;;;-139.71;77.06
3598;BME280;1813;52.016;8.714;2023-02-17T11:34:29;-16261.94;;;-139.71;76.72
3598;BME280;1813;52.016;8.714;2023-02-17T11:37:18;-16261.94;;;-139.71;76.62
3598;BME280;1813;52.016;8.714;2023-02-17T11:39:54;-16261.94;;;-139.71;75.44
3598;BME280;1813;52.016;8.714;2023-02-17T11:42:32;-16261.94;;;-139.71;75.27
3598;BME280;1813;52.016;8.714;2023-02-17T11:45:16;-16261.94;;;-139.71;74.79
3598;BME280;1813;52.016;8.714;2023-02-17T11:47:59;-16261.94;;;-139.71;74.40
3598;BME280;1813;52.016;8.714;2023-02-17T11:50:40;-16261.94;;;-139.71;74.09
3598;BME280;1813;52.016;8.714;2023-02-17T11:53:24;-16261.94;;;-139.71;73.86
3598;BME280;1813;52.016;8.714;2023-02-17T11:56:09;-16261.94;;;-139.71;73.65
3598;BME280;1813;52.016;8.714;2023-02-17T11:59:02;-16261.94;;;-139.71;73.42
3598;BME280;1813;52.016;8.714;2023-02-17T12:01:53;-16261.94;;;-139.71;73.50
3598;BME280;1813;52.016;8.714;2023-02-17T12:04:31;-16261.94;;;-139.71;73.42
3598;BME280;1813;52.016;8.714;2023-02-17T12:07:20;-16261.94;;;-139.71;73.17
3598;BME280;1813;52.016;8.714;2023-02-17T12:10:08;-16261.94;;;-139.71;73.02
3598;BME280;1813;52.016;8.714;2023-02-17T12:13:00;-16261.94;;;-139.71;72.62
3598;BME280;1813;52.016;8.714;2023-02-17T12:15:54;-16261.94;;;-139.71;72.44
3598;BME280;1813;52.016;8.714;2023-02-17T12:18:39;-16261.94;;;-139.71;72.21
3598;BME280;1813;52.016;8.714;2023-02-17T12:21:28;-16261.94;;;-139.71;72.31
3598;BME280;1813;52.016;8.714;2023-02-17T12:24:21;-16261.94;;;-139.71;71.76
3598;BME280;1813;52.016;8.714;2023-02-17T12:27:04;-16261.94;;;-139.71;71.53
3598;BME280;1813;52.016;8.714;2023-02-17T12:32:59;-16261.94;;;-139.71;71.79
3598;BME280;1813;52.016;8.714;2023-02-17T12:35:42;-16261.94;;;-139.71;72.17
3598;BME280;1813;52.016;8.714;2023-02-17T12:38:26;-16261.94;;;-139.71;72.02
3598;BME280;1813;52.016;8.714;2023-02-17T12:41:03;-16261.94;;;-139.71;71.98
3598;BME280;1813;52.016;8.714;2023-02-17T12:43:45;-16261.94;;;-139.71;71.86
3598;BME280;1813;52.016;8.714;2023-02-17T12:46:27;-16261.94;;;-139.71;72.05
3598;BME280;1813;52.016;8.714;2023-02-17T12:49:09;-16261.94;;;-139.71;72.13
3598;BME280;1813;52.016;8.714;2023-02-17T12:51:47;-16261.94;;;-139.71;72.35
3598;BME280;1813;52.016;8.714;2023-02-17T12:54:25;-16261.94;;;-139.71;72.22
3598;BME280;1813;52.016;8.714;2023-02-17T12:57:10;-16261.94;;;-139.71;72.42
3598;BME280;1813;52.016;8.714;2023-02-17T12:59:48;-16261.94;;;-139.71;72.52
3598;BME280;1813;52.016;8.714;2023-02-17T13:02:25;-16261.94;;;-139.71;72.62
3598;BME280;1813;52.016;8.714;2023-02-17T13:05:10;-16261.94;;;-139.71;72.93
3598;BME280;1813;52.016;8.714;2023-02-17T13:07:56;-16261.94;;;-139.71;72.86
3598;BME280;1813;52.016;8.714;2023-02-17T13:10:34;-16261.94;;;-139.71;72.96
3598;BME280;1813;52.016;8.714;2023-02-17T13:13:23;-16261.94;;;-139.71;73.10
3598;BME280;1813;52.016;8.714;2023-02-17T13:16:03;-16261.94;;;-139.71;73.13
3598;BME280;1813;52.016;8.714;2023-02-17T13:18:39;-16261.94;;;-139.71;73.16
3598;BME280;1813;52.016;8.714;2023-02-17T13:21:26;-16261.94;;;-139.71;73.28
3598;BME280;1813;52.016;8.714;2023-02-17T13:24:05;-16261.94;;;-139.71;73.51
3598;BME280;1813;52.016;8.714;2023-02-17T13:26:48;-16261.94;;;-139.71;73.37
3598;BME280;1813;52.016;8.714;2023-02-17T13:29:33;-16261.94;;;-139.71;73.62
3598;BME280;1813;52.016;8.714;2023-02-17T13:32:10;-16261.94;;;-139.71;73.73
3598;BME280;1813;52.016;8.714;2023-02-17T13:34:44;-16261.94;;;-139.71;73.93
3598;BME280;1813;52.016;8.714;2023-02-17T13:37:24;-16261.94;;;-139.71;74.25
3598;BME280;1813;52.016;8.714;2023-02-17T13:39:59;-16261.94;;;-139.71;74.35
3598;BME280;1813;52.016;8.714;2023-02-17T13:42:37;-16261.94;;;-139.71;74.40
3598;BME280;1813;52.016;8.714;2023-02-17T13:45:20;-16261.94;;;-139.71;74.86
3598;BME280;1813;52.016;8.714;2023-02-17T13:47:57;-16261.94;;;-139.71;75.15
3598;BME280;1813;52.016;8.714;2023-02-17T13:50:33;-16261.94;;;-139.71;75.59
3598;BME280;1813;52.016;8.714;2023-02-17T13:53:23;-16261.94;;;-139.71;76.33
3598;BME280;1813;52.016;8.714;2023-02-17T13:56:00;-16261.94;;;-139.71;77.29